Terminal Aerodrome Forecast
Issued by NWS

Home | Current Version | Previous Version | Text Only | Print | Product List | Glossary On
Versions: 1 2 3 4 5 6 7 8 9 10 11 12 13 14 15 16 17 18 19 20 21 22 23 24
000
FTUS46 KMFR 310500
TAFLMT
TAF
KLMT 310538Z 3106/0106 20007KT P6SM SCT120 OVC200
     FM311000 19010KT P6SM OVC080
     FM311500 19010KT P6SM -RA BKN025
     FM312100 23012KT P6SM -SHRA SCT025 BKN040
     FM010000 27008KT P6SM -SHRA SCT025 BKN040=

USA.gov is the U.S. government's official web portal to all federal, state and local government web resources and services.